createdAt,value
2023-01-30T00:00:44.709Z,13.93
2023-01-30T00:03:47.405Z,18.48
2023-01-30T00:06:49.781Z,18.27
2023-01-30T00:09:52.336Z,18.42
2023-01-30T00:12:54.702Z,18.75
2023-01-30T00:15:57.364Z,20.40
2023-01-30T00:18:59.711Z,19.60
2023-01-30T00:22:02.347Z,22.23
2023-01-30T00:25:05.309Z,14.85
2023-01-30T00:28:08.045Z,15.25
2023-01-30T00:31:10.487Z,19.02
2023-01-30T00:34:13.236Z,20.27
2023-01-30T00:37:15.768Z,17.70
2023-01-30T00:40:18.815Z,20.20
2023-01-30T00:43:40.273Z,20.37
2023-01-30T00:47:01.591Z,15.07
2023-01-30T00:50:04.302Z,17.40
2023-01-30T00:53:07.104Z,19.37
2023-01-30T00:56:09.649Z,18.17
2023-01-30T00:59:12.311Z,19.42
2023-01-30T01:02:14.660Z,18.15
2023-01-30T01:05:17.547Z,20.92
2023-01-30T01:08:20.207Z,15.65
2023-01-30T01:11:25.909Z,17.70
2023-01-30T01:14:29.868Z,20.83
2023-01-30T01:17:32.523Z,19.50
2023-01-30T01:20:34.949Z,18.70
2023-01-30T01:23:39.051Z,17.95
2023-01-30T01:26:42.242Z,19.33
2023-01-30T01:29:46.643Z,14.95
2023-01-30T01:32:49.061Z,17.00
2023-01-30T01:35:55.153Z,17.48
2023-01-30T01:38:58.329Z,18.40
2023-01-30T01:42:00.960Z,17.00
2023-01-30T01:45:10.617Z,18.35
2023-01-30T01:48:19.205Z,16.05
2023-01-30T01:51:27.787Z,17.10
2023-01-30T01:54:39.929Z,16.48
2023-01-30T01:57:54.033Z,15.60
2023-01-30T02:01:00.063Z,17.50
2023-01-30T02:04:06.251Z,16.70
2023-01-30T02:07:09.560Z,16.98
2023-01-30T02:10:18.921Z,14.65
2023-01-30T02:13:23.086Z,18.10
2023-01-30T02:16:25.472Z,16.50
2023-01-30T02:19:49.088Z,18.25
2023-01-30T02:23:14.955Z,15.77
2023-01-30T02:27:08.077Z,18.48
2023-01-30T02:30:36.132Z,19.73
2023-01-30T02:33:50.707Z,19.15
2023-01-30T02:37:32.631Z,15.80
2023-01-30T02:40:48.412Z,18.80
2023-01-30T02:44:32.397Z,20.48
2023-01-30T02:47:45.221Z,24.15
2023-01-30T02:50:57.135Z,20.85
2023-01-30T02:54:00.437Z,18.73
2023-01-30T02:57:02.925Z,17.90
2023-01-30T03:00:07.725Z,19.62
2023-01-30T03:03:11.115Z,19.98
2023-01-30T03:06:40.002Z,16.63
2023-01-30T03:10:07.572Z,17.15
2023-01-30T03:13:16.617Z,17.08
2023-01-30T03:16:26.072Z,20.15
2023-01-30T03:19:31.570Z,20.80
2023-01-30T03:22:35.094Z,19.02
2023-01-30T03:25:40.619Z,15.82
2023-01-30T03:28:43.947Z,19.60
2023-01-30T03:31:46.637Z,19.45
2023-01-30T03:34:49.073Z,21.05
2023-01-30T03:37:52.194Z,22.50
2023-01-30T03:40:54.641Z,20.75
2023-01-30T03:43:57.364Z,22.45
2023-01-30T03:47:00.232Z,26.60
2023-01-30T03:50:03.773Z,26.52
2023-01-30T03:53:06.639Z,23.87
2023-01-30T03:56:09.905Z,21.15
2023-01-30T03:59:12.615Z,22.02
2023-01-30T04:02:19.648Z,23.27
2023-01-30T04:05:23.674Z,28.87
2023-01-30T04:08:27.481Z,24.00
2023-01-30T04:11:30.734Z,24.58
2023-01-30T04:14:33.292Z,25.02
2023-01-30T04:17:39.304Z,22.23
2023-01-30T04:20:43.851Z,29.70
2023-01-30T04:23:47.732Z,24.90
2023-01-30T04:26:50.076Z,23.02
2023-01-30T04:29:52.725Z,25.12
2023-01-30T04:32:55.138Z,20.45
2023-01-30T04:35:59.816Z,27.42
2023-01-30T04:39:02.782Z,24.73
2023-01-30T04:42:05.995Z,21.08
2023-01-30T04:45:10.897Z,21.35
2023-01-30T04:48:14.299Z,27.50
2023-01-30T04:54:20.486Z,20.40
2023-01-30T04:57:22.820Z,25.25
2023-01-30T05:00:26.071Z,27.17
2023-01-30T05:03:29.753Z,23.33
2023-01-30T05:06:33.417Z,21.52
2023-01-30T05:09:35.704Z,24.73
2023-01-30T05:12:38.598Z,26.85
2023-01-30T05:15:41.124Z,18.45
2023-01-30T05:18:43.917Z,18.75
2023-01-30T05:21:46.253Z,25.10
2023-01-30T05:24:48.857Z,23.42
2023-01-30T05:27:51.140Z,22.35
2023-01-30T05:30:53.908Z,25.48
2023-01-30T05:33:56.276Z,24.95
2023-01-30T05:36:58.885Z,22.60
2023-01-30T05:40:01.233Z,22.42
2023-01-30T05:43:03.888Z,20.92
2023-01-30T05:46:07.446Z,23.10
2023-01-30T05:52:12.300Z,26.00
2023-01-30T05:55:15.213Z,24.12
2023-01-30T05:58:17.598Z,21.87
2023-01-30T06:01:21.111Z,23.40
2023-01-30T06:04:23.892Z,21.92
2023-01-30T06:07:26.439Z,25.23
2023-01-30T06:10:29.033Z,26.87
2023-01-30T06:13:31.986Z,25.02
2023-01-30T06:16:34.574Z,21.95
2023-01-30T06:19:36.876Z,25.80
2023-01-30T06:22:39.470Z,21.52
2023-01-30T06:25:48.945Z,24.77
2023-01-30T06:28:51.508Z,26.37
2023-01-30T06:31:53.846Z,24.75
2023-01-30T06:34:56.828Z,23.52
2023-01-30T06:37:59.213Z,24.65
2023-01-30T06:41:02.040Z,24.67
2023-01-30T06:44:04.541Z,31.95
2023-01-30T06:47:07.403Z,24.23
2023-01-30T06:50:10.130Z,26.40
2023-01-30T06:53:12.757Z,28.00
2023-01-30T06:56:15.135Z,26.42
2023-01-30T06:59:17.725Z,20.37
2023-01-30T07:02:20.050Z,21.90
2023-01-30T07:05:22.699Z,25.40
2023-01-30T07:08:25.059Z,23.83
2023-01-30T07:11:28.168Z,23.10
2023-01-30T07:14:30.538Z,28.10
2023-01-30T07:17:33.528Z,30.37
2023-01-30T07:20:36.051Z,26.80
2023-01-30T07:23:38.661Z,23.20
2023-01-30T07:26:41.011Z,25.60
2023-01-30T07:29:43.661Z,27.35
2023-01-30T07:32:54.269Z,27.50
2023-01-30T07:35:56.960Z,23.20
2023-01-30T07:39:01.610Z,26.17
2023-01-30T07:42:04.944Z,31.48
2023-01-30T07:45:07.800Z,22.90
2023-01-30T07:48:15.557Z,33.50
2023-01-30T07:51:17.911Z,29.70
2023-01-30T07:54:20.671Z,25.12
2023-01-30T07:57:23.087Z,28.45
2023-01-30T08:00:25.969Z,25.37
2023-01-30T08:03:28.652Z,28.30
2023-01-30T08:06:31.140Z,27.33
2023-01-30T08:09:33.898Z,27.42
2023-01-30T08:12:36.277Z,24.12
2023-01-30T08:15:38.969Z,23.17
2023-01-30T08:18:41.424Z,29.52
2023-01-30T08:21:43.998Z,25.60
2023-01-30T08:24:46.791Z,35.30
2023-01-30T08:27:49.748Z,30.50
2023-01-30T08:30:53.441Z,31.80
2023-01-30T08:36:58.306Z,37.97
2023-01-30T08:40:03.635Z,26.90
2023-01-30T08:43:06.409Z,40.08
2023-01-30T08:46:09.156Z,35.73
2023-01-30T08:49:11.912Z,31.08
2023-01-30T08:52:14.587Z,36.67
2023-01-30T08:55:18.024Z,37.20
2023-01-30T08:58:22.017Z,35.75
2023-01-30T09:01:24.370Z,37.75
2023-01-30T09:04:30.769Z,27.35
2023-01-30T09:07:33.119Z,21.23
2023-01-30T09:10:36.559Z,29.27
2023-01-30T09:13:43.492Z,16.00
2023-01-30T09:16:48.239Z,21.83
2023-01-30T09:19:50.656Z,22.55
2023-01-30T09:22:53.581Z,13.50
2023-01-30T09:25:56.013Z,24.30
2023-01-30T09:28:58.598Z,13.40
2023-01-30T09:32:01.044Z,25.35
2023-01-30T09:35:04.595Z,21.45
2023-01-30T09:38:06.942Z,24.40
2023-01-30T09:41:28.445Z,20.48
2023-01-30T09:44:58.706Z,26.48
2023-01-30T09:48:04.441Z,20.75
2023-01-30T09:51:51.325Z,24.12
2023-01-30T09:55:02.041Z,25.73
2023-01-30T09:58:04.839Z,24.70
2023-01-30T10:01:15.393Z,25.88
2023-01-30T10:04:36.353Z,18.98
2023-01-30T10:07:52.476Z,22.10
2023-01-30T10:11:33.990Z,26.73
2023-01-30T10:14:46.828Z,20.62
2023-01-30T10:18:08.158Z,24.87
2023-01-30T10:21:21.111Z,17.02
2023-01-30T10:24:40.823Z,25.88
2023-01-30T10:27:52.539Z,14.52
2023-01-30T10:31:10.325Z,23.08
2023-01-30T10:34:37.623Z,25.25
2023-01-30T10:38:01.089Z,26.17
2023-01-30T10:41:36.263Z,18.95
2023-01-30T10:44:44.070Z,18.75
2023-01-30T10:47:47.885Z,24.15
2023-01-30T10:50:56.609Z,21.05
2023-01-30T10:54:13.523Z,21.70
2023-01-30T10:57:23.958Z,18.15
2023-01-30T11:00:37.402Z,15.50
2023-01-30T11:03:55.780Z,19.87
2023-01-30T11:07:01.997Z,22.50
2023-01-30T11:10:15.819Z,25.92
2023-01-30T11:13:30.696Z,37.22
2023-01-30T11:16:43.412Z,27.58
2023-01-30T11:19:53.420Z,26.60
2023-01-30T11:23:08.725Z,20.33
2023-01-30T11:26:19.300Z,18.90
2023-01-30T11:29:33.709Z,26.67
2023-01-30T11:32:37.240Z,28.70
2023-01-30T11:39:23.136Z,24.23
2023-01-30T11:42:31.741Z,27.37
2023-01-30T11:45:38.569Z,26.33
2023-01-30T11:49:46.069Z,30.15
2023-01-30T11:52:38.083Z,26.87
2023-01-30T11:55:43.185Z,25.00
2023-01-30T11:59:00.739Z,25.48
2023-01-30T12:02:40.476Z,28.12
2023-01-30T12:05:46.786Z,27.25
2023-01-30T12:08:53.006Z,25.52
2023-01-30T12:11:55.733Z,25.20
2023-01-30T12:15:22.009Z,23.62
2023-01-30T12:18:38.421Z,23.98
2023-01-30T12:21:57.285Z,26.50
2023-01-30T12:25:03.420Z,32.47
2023-01-30T12:28:35.048Z,29.45
2023-01-30T12:31:46.390Z,26.65
2023-01-30T12:34:50.840Z,30.67
2023-01-30T12:38:20.438Z,20.65
2023-01-30T12:41:57.010Z,20.83
2023-01-30T12:45:34.862Z,27.42
2023-01-30T12:49:10.896Z,17.73
2023-01-30T12:52:33.365Z,19.52
2023-01-30T12:55:55.627Z,21.25
2023-01-30T12:59:13.368Z,16.10
2023-01-30T13:02:27.111Z,24.45
2023-01-30T13:05:41.800Z,24.48
2023-01-30T13:12:26.102Z,21.02
2023-01-30T13:15:59.015Z,21.60
2023-01-30T13:19:06.177Z,20.33
2023-01-30T13:22:27.397Z,19.58
2023-01-30T13:25:38.894Z,22.35
2023-01-30T13:28:50.442Z,21.05
2023-01-30T13:31:58.139Z,17.00
2023-01-30T13:35:04.760Z,23.27
2023-01-30T13:38:10.503Z,20.73
2023-01-30T13:41:15.012Z,16.45
2023-01-30T13:44:23.028Z,20.25
2023-01-30T13:47:31.416Z,21.25
2023-01-30T13:50:59.017Z,24.77
2023-01-30T13:54:04.363Z,20.00
2023-01-30T13:57:22.164Z,21.33
2023-01-30T14:00:33.303Z,27.25
2023-01-30T14:03:36.170Z,23.48
2023-01-30T14:06:39.486Z,21.83
2023-01-30T14:10:02.084Z,23.12
2023-01-30T14:13:06.383Z,16.50
2023-01-30T14:16:09.474Z,20.20
2023-01-30T14:19:24.057Z,17.25
2023-01-30T14:22:31.121Z,16.17
2023-01-30T14:25:43.445Z,19.08
2023-01-30T14:28:47.212Z,18.62
2023-01-30T14:31:51.003Z,20.02
2023-01-30T14:35:02.861Z,19.80
2023-01-30T14:38:14.207Z,18.40
2023-01-30T14:41:26.941Z,21.20
2023-01-30T14:44:55.276Z,22.70
2023-01-30T14:48:33.511Z,19.23
2023-01-30T14:51:49.675Z,23.00
2023-01-30T14:54:52.337Z,19.00
2023-01-30T14:58:01.604Z,19.90
2023-01-30T15:01:04.953Z,21.35
2023-01-30T15:04:12.250Z,21.60
2023-01-30T15:07:20.154Z,21.30
2023-01-30T15:10:56.544Z,21.17
2023-01-30T15:14:11.970Z,22.92
2023-01-30T15:17:37.651Z,15.30
2023-01-30T15:20:52.406Z,20.17
2023-01-30T15:24:18.950Z,26.23
2023-01-30T15:27:31.856Z,24.83
2023-01-30T15:30:47.386Z,22.95
2023-01-30T15:33:52.216Z,21.75
2023-01-30T15:36:54.674Z,21.35
2023-01-30T15:40:20.435Z,21.20
2023-01-30T15:43:29.001Z,18.80
2023-01-30T15:46:43.459Z,15.63
2023-01-30T15:49:57.164Z,16.60
2023-01-30T15:53:00.122Z,18.65
2023-01-30T15:56:07.094Z,20.73
2023-01-30T15:59:34.827Z,20.85
2023-01-30T16:02:37.697Z,19.12
2023-01-30T16:05:48.026Z,20.53
2023-01-30T16:09:20.428Z,20.35
2023-01-30T16:12:28.259Z,17.95
2023-01-30T16:15:30.771Z,18.33
2023-01-30T16:18:49.700Z,20.30
2023-01-30T16:21:55.251Z,21.70
2023-01-30T16:24:57.957Z,16.48
2023-01-30T16:28:00.630Z,18.30
2023-01-30T16:31:06.919Z,22.30
2023-01-30T16:34:30.999Z,21.67
2023-01-30T16:37:33.654Z,19.83
2023-01-30T16:40:46.401Z,20.45
2023-01-30T16:44:08.273Z,23.30
2023-01-30T16:47:22.401Z,19.45
2023-01-30T16:50:25.417Z,19.87
2023-01-30T16:53:30.707Z,22.45
2023-01-30T16:56:34.707Z,19.98
2023-01-30T16:59:37.917Z,18.92
2023-01-30T17:02:42.552Z,21.62
2023-01-30T17:05:47.909Z,17.83
2023-01-30T17:08:54.281Z,20.73
2023-01-30T17:11:56.766Z,21.45
2023-01-30T17:15:14.204Z,20.00
2023-01-30T17:18:17.265Z,18.02
2023-01-30T17:21:22.998Z,19.05
2023-01-30T17:24:26.212Z,18.80
2023-01-30T17:27:30.509Z,15.32
2023-01-30T17:33:35.302Z,17.20
2023-01-30T17:36:39.124Z,19.10
2023-01-30T17:39:41.845Z,14.10
2023-01-30T17:42:44.899Z,14.68
2023-01-30T17:45:48.251Z,17.02
2023-01-30T17:48:51.836Z,16.87
2023-01-30T17:54:57.927Z,14.98
2023-01-30T17:58:01.475Z,16.55
2023-01-30T18:01:06.528Z,16.70
2023-01-30T18:04:09.564Z,16.17
2023-01-30T18:07:14.641Z,14.98
2023-01-30T18:10:19.991Z,13.02
2023-01-30T18:13:22.618Z,16.08
2023-01-30T18:16:28.827Z,14.85
2023-01-30T18:19:31.846Z,14.52
2023-01-30T18:22:34.701Z,14.95
2023-01-30T18:25:37.324Z,17.25
2023-01-30T18:28:40.280Z,15.18
2023-01-30T18:31:43.082Z,15.40
2023-01-30T18:34:46.135Z,15.60
2023-01-30T18:37:49.887Z,13.48
2023-01-30T18:40:52.615Z,15.98
2023-01-30T18:43:56.968Z,14.70
2023-01-30T18:46:59.971Z,15.05
2023-01-30T18:50:02.401Z,16.17
2023-01-30T18:53:05.119Z,16.95
2023-01-30T18:56:09.277Z,14.43
2023-01-30T18:59:11.923Z,12.65
2023-01-30T19:02:14.377Z,15.82
2023-01-30T19:05:17.121Z,15.15
2023-01-30T19:08:19.672Z,14.98
2023-01-30T19:11:41.432Z,13.68
2023-01-30T19:14:44.821Z,16.23
2023-01-30T19:17:47.485Z,13.32
2023-01-30T19:20:50.113Z,12.48
2023-01-30T19:23:53.452Z,13.07
2023-01-30T19:26:56.097Z,13.03
2023-01-30T19:29:58.963Z,13.27
2023-01-30T19:33:01.413Z,15.45
2023-01-30T19:36:11.545Z,12.07
2023-01-30T19:39:14.125Z,9.07
2023-01-30T19:42:16.786Z,9.38
2023-01-30T19:45:19.905Z,9.93
2023-01-30T19:48:22.543Z,6.90
2023-01-30T19:51:30.517Z,8.45
2023-01-30T19:54:34.400Z,6.78
2023-01-30T19:57:36.810Z,7.25
2023-01-30T20:00:39.438Z,7.35
2023-01-30T20:03:42.786Z,6.82
2023-01-30T20:06:45.976Z,5.53
2023-01-30T20:09:48.722Z,8.55
2023-01-30T20:12:51.108Z,9.27
2023-01-30T20:15:54.765Z,9.27
2023-01-30T20:18:59.054Z,7.07
2023-01-30T20:22:07.275Z,5.87
2023-01-30T20:25:10.357Z,9.70
2023-01-30T20:28:12.977Z,10.07
2023-01-30T20:31:20.948Z,9.63
2023-01-30T20:34:23.881Z,6.37
2023-01-30T20:37:26.557Z,5.45
2023-01-30T20:40:29.177Z,8.07
2023-01-30T20:43:34.404Z,9.25
2023-01-30T20:46:41.559Z,5.05
2023-01-30T20:49:44.638Z,4.78
2023-01-30T20:52:51.467Z,6.67
2023-01-30T20:55:57.248Z,5.53
2023-01-30T20:59:01.222Z,5.87
2023-01-30T21:02:03.524Z,5.07
2023-01-30T21:05:07.069Z,6.93
2023-01-30T21:08:09.460Z,6.07
2023-01-30T21:11:17.265Z,4.07
2023-01-30T21:14:19.599Z,5.10
2023-01-30T21:17:22.168Z,5.32
2023-01-30T21:20:24.523Z,4.82
2023-01-30T21:23:28.970Z,8.18
2023-01-30T21:26:33.385Z,9.43
2023-01-30T21:29:36.882Z,5.47
2023-01-30T21:32:39.256Z,4.60
2023-01-30T21:35:42.189Z,4.75
2023-01-30T21:39:03.087Z,3.83
2023-01-30T21:42:27.096Z,4.87
2023-01-30T21:45:29.424Z,4.23
2023-01-30T21:48:32.025Z,3.75
2023-01-30T21:51:34.811Z,5.25
2023-01-30T21:54:37.800Z,4.47
2023-01-30T21:57:40.120Z,5.30
2023-01-30T22:00:42.951Z,3.55
2023-01-30T22:03:46.176Z,5.80
2023-01-30T22:06:48.563Z,5.03
2023-01-30T22:09:51.112Z,3.75
2023-01-30T22:12:53.685Z,5.03
2023-01-30T22:16:00.141Z,6.78
2023-01-30T22:19:04.772Z,5.12
2023-01-30T22:22:07.426Z,5.60
2023-01-30T22:25:09.987Z,5.30
2023-01-30T22:28:12.613Z,5.80
2023-01-30T22:31:18.154Z,4.43
2023-01-30T22:34:21.562Z,4.80
2023-01-30T22:37:23.878Z,5.23
2023-01-30T22:40:26.489Z,5.00
2023-01-30T22:43:30.629Z,4.15
2023-01-30T22:46:36.453Z,6.15
2023-01-30T22:49:39.645Z,5.30
2023-01-30T22:52:42.240Z,5.62
2023-01-30T22:55:44.552Z,4.43
2023-01-30T22:58:48.486Z,4.43
2023-01-30T23:01:51.100Z,3.28
2023-01-30T23:04:54.363Z,6.18
2023-01-30T23:07:57.377Z,5.82
2023-01-30T23:11:15.585Z,5.45
2023-01-30T23:14:18.205Z,3.62
2023-01-30T23:17:39.588Z,4.22
2023-01-30T23:20:41.899Z,4.62
2023-01-30T23:23:45.441Z,4.75
2023-01-30T23:26:50.987Z,3.03
2023-01-30T23:29:53.628Z,3.53
2023-01-30T23:32:55.937Z,3.83
2023-01-30T23:36:03.157Z,2.70
2023-01-30T23:39:05.512Z,4.20
2023-01-30T23:42:08.163Z,4.57
2023-01-30T23:45:10.959Z,3.67
2023-01-30T23:48:13.637Z,2.90
2023-01-30T23:51:17.807Z,3.92
2023-01-30T23:54:20.484Z,4.47
2023-01-30T23:57:22.787Z,3.87
